createdAt,value
2024-05-09T00:01:59.922Z,100959.39
2024-05-09T00:07:05.148Z,100961.58
2024-05-09T00:12:09.923Z,100963.75
2024-05-09T00:17:14.629Z,100964.37
2024-05-09T00:22:19.287Z,100966.14
2024-05-09T00:27:23.915Z,100969.00
2024-05-09T00:32:28.720Z,100969.94
2024-05-09T00:37:33.366Z,100966.50
2024-05-09T00:42:39.772Z,100969.52
2024-05-09T00:47:46.477Z,100972.19
2024-05-09T00:52:51.613Z,100979.22
2024-05-09T00:57:56.428Z,100977.19
2024-05-09T01:03:01.281Z,100983.84
2024-05-09T01:08:07.808Z,100980.39
2024-05-09T01:13:12.674Z,100980.41
2024-05-09T01:18:17.954Z,100979.92
2024-05-09T01:23:22.658Z,100975.76
2024-05-09T01:28:27.212Z,100969.49
2024-05-09T01:33:32.162Z,100964.10
2024-05-09T01:38:37.152Z,100954.71
2024-05-09T01:43:41.730Z,100957.34
2024-05-09T01:48:46.963Z,100958.74
2024-05-09T01:53:52.445Z,100957.02
2024-05-09T01:58:56.978Z,100961.55
2024-05-09T02:04:02.070Z,100955.10
2024-05-09T02:09:06.811Z,100958.96
2024-05-09T02:14:11.464Z,100971.34
2024-05-09T02:19:16.161Z,100975.01
2024-05-09T02:24:20.791Z,100981.27
2024-05-09T02:29:25.396Z,100981.64
2024-05-09T02:34:30.322Z,100994.19
2024-05-09T02:39:35.451Z,100996.80
2024-05-09T02:44:39.856Z,100997.14
2024-05-09T02:49:44.340Z,100995.06
2024-05-09T02:54:48.695Z,100990.69
2024-05-09T02:59:53.200Z,100997.48
2024-05-09T03:04:58.158Z,100996.08
2024-05-09T03:10:03.500Z,100989.61
2024-05-09T03:15:09.810Z,100986.98
2024-05-09T03:20:20.588Z,100992.55
2024-05-09T03:25:29.045Z,100998.13
2024-05-09T03:30:40.340Z,100989.25
2024-05-09T03:35:48.039Z,100988.55
2024-05-09T03:40:53.383Z,100993.95
2024-05-09T03:45:58.313Z,101001.61
2024-05-09T03:51:03.061Z,101001.63
2024-05-09T03:56:10.215Z,101005.12
2024-05-09T04:01:15.043Z,101004.10
2024-05-09T04:06:23.688Z,100999.40
2024-05-09T04:11:28.432Z,100996.44
2024-05-09T04:16:33.260Z,100996.97
2024-05-09T04:21:38.061Z,100994.00
2024-05-09T04:26:41.718Z,100993.48
2024-05-09T04:31:46.399Z,100986.64
2024-05-09T04:36:51.230Z,100986.06
2024-05-09T04:41:56.736Z,100984.23
2024-05-09T04:47:02.192Z,100983.75
2024-05-09T04:52:08.312Z,100981.98
2024-05-09T04:57:13.622Z,100975.15
2024-05-09T05:02:18.975Z,100968.56
2024-05-09T05:07:25.207Z,100973.27
2024-05-09T05:12:50.221Z,100971.35
2024-05-09T05:17:56.709Z,100970.70
2024-05-09T05:23:02.379Z,100968.45
2024-05-09T05:28:08.673Z,100962.27
2024-05-09T05:33:15.697Z,100957.08
2024-05-09T05:38:25.038Z,100962.04
2024-05-09T05:43:32.848Z,100958.20
2024-05-09T05:48:38.227Z,100958.85
2024-05-09T05:53:44.413Z,100957.83
2024-05-09T05:58:49.876Z,100954.38
2024-05-09T06:03:55.524Z,100950.23
2024-05-09T06:09:01.155Z,100937.95
2024-05-09T06:14:06.667Z,100946.29
2024-05-09T06:19:12.115Z,100945.64
2024-05-09T06:24:17.777Z,100950.90
2024-05-09T06:29:23.422Z,100948.14
2024-05-09T06:34:29.351Z,100944.91
2024-05-09T06:39:34.720Z,100944.26
2024-05-09T06:44:40.077Z,100942.10
2024-05-09T06:49:45.794Z,100936.75
2024-05-09T06:54:51.195Z,100937.19
2024-05-09T06:59:59.313Z,100931.10
2024-05-09T07:05:05.413Z,100925.14
2024-05-09T07:10:17.781Z,100922.48
2024-05-09T07:15:27.768Z,100918.42
2024-05-09T07:20:35.140Z,100919.77
2024-05-09T07:25:41.932Z,100910.15
2024-05-09T07:30:54.899Z,100912.46
2024-05-09T07:36:00.202Z,100908.27
2024-05-09T07:41:06.377Z,100904.04
2024-05-09T07:47:14.103Z,100897.02
2024-05-09T07:56:49.220Z,100889.98
2024-05-09T08:01:54.826Z,100887.79
2024-05-09T08:07:01.123Z,100884.39
2024-05-09T08:12:08.882Z,100880.45
2024-05-09T08:17:16.003Z,100880.68
2024-05-09T08:22:21.680Z,100883.13
2024-05-09T08:27:27.558Z,100884.41
2024-05-09T08:32:34.650Z,100885.60
2024-05-09T08:37:40.789Z,100889.27
2024-05-09T08:42:50.710Z,100881.77
2024-05-09T08:47:57.446Z,100877.00
2024-05-09T08:53:03.847Z,100874.64
2024-05-09T08:58:11.016Z,100873.67
2024-05-09T09:03:19.204Z,100864.21
2024-05-09T09:08:26.851Z,100857.89
2024-05-09T09:13:32.672Z,100858.84
2024-05-09T09:18:38.431Z,100865.37
2024-05-09T09:23:45.421Z,100851.52
2024-05-09T09:28:52.079Z,100852.27
2024-05-09T09:33:56.881Z,100844.70
2024-05-09T09:39:02.623Z,100840.98
2024-05-09T09:44:10.761Z,100826.38
2024-05-09T09:49:17.358Z,100823.13
2024-05-09T09:54:23.322Z,100819.11
2024-05-09T09:59:30.446Z,100816.63
2024-05-09T10:04:36.929Z,100817.08
2024-05-09T10:09:43.040Z,100816.34
2024-05-09T10:14:49.398Z,100809.64
2024-05-09T10:20:14.452Z,100810.39
2024-05-09T10:25:27.265Z,100802.79
2024-05-09T10:30:36.195Z,100792.46
2024-05-09T10:35:53.047Z,100791.00
2024-05-09T10:41:00.324Z,100791.50
2024-05-09T10:46:07.436Z,100789.66
2024-05-09T10:51:13.769Z,100783.61
2024-05-09T10:56:19.926Z,100775.61
2024-05-09T11:01:25.616Z,100765.05
2024-05-09T11:06:31.673Z,100761.90
2024-05-09T11:11:38.130Z,100751.48
2024-05-09T11:16:44.406Z,100751.09
2024-05-09T11:21:53.720Z,100747.24
2024-05-09T11:27:01.108Z,100738.88
2024-05-09T11:32:11.134Z,100729.85
2024-05-09T11:37:16.844Z,100732.89
2024-05-09T11:42:22.288Z,100732.01
2024-05-09T11:47:28.693Z,100721.85
2024-05-09T11:52:34.287Z,100716.71
2024-05-09T11:57:39.853Z,100714.56
2024-05-09T12:02:45.662Z,100713.94
2024-05-09T12:07:51.782Z,100708.02
2024-05-09T12:12:57.855Z,100698.00
2024-05-09T12:18:04.374Z,100690.33
2024-05-09T12:23:11.146Z,100689.02
2024-05-09T12:28:18.122Z,100683.66
2024-05-09T12:33:24.859Z,100681.03
2024-05-09T12:38:31.187Z,100672.22
2024-05-09T12:43:37.390Z,100672.66
2024-05-09T12:48:43.805Z,100674.45
2024-05-09T12:53:49.140Z,100668.90
2024-05-09T12:58:54.571Z,100662.27
2024-05-09T13:04:00.790Z,100658.24
2024-05-09T13:09:06.420Z,100651.24
2024-05-09T13:14:11.733Z,100640.52
2024-05-09T13:19:17.668Z,100635.59
2024-05-09T13:24:23.014Z,100637.38
2024-05-09T13:29:28.342Z,100640.30
2024-05-09T13:34:34.037Z,100633.70
2024-05-09T13:39:39.454Z,100629.09
2024-05-09T13:44:44.110Z,100623.66
2024-05-09T13:49:49.292Z,100619.77
2024-05-09T13:54:54.724Z,100614.48
2024-05-09T14:00:00.361Z,100615.52
2024-05-09T14:05:06.819Z,100614.35
2024-05-09T14:10:22.479Z,100605.20
2024-05-09T14:15:32.267Z,100601.61
2024-05-09T14:20:38.675Z,100592.20
2024-05-09T14:25:45.528Z,100589.31
2024-05-09T14:30:52.219Z,100587.17
2024-05-09T14:35:58.191Z,100578.48
2024-05-09T14:41:03.698Z,100573.61
2024-05-09T14:46:09.255Z,100563.30
2024-05-09T14:51:16.031Z,100560.35
2024-05-09T14:56:21.409Z,100554.04
2024-05-09T15:01:27.769Z,100543.11
2024-05-09T15:06:33.704Z,100537.92
2024-05-09T15:11:39.813Z,100530.98
2024-05-09T15:16:45.600Z,100531.24
2024-05-09T15:21:51.248Z,100525.41
2024-05-09T15:26:56.726Z,100524.62
2024-05-09T15:32:02.129Z,100518.21
2024-05-09T15:37:08.553Z,100515.98
2024-05-09T15:42:14.065Z,100509.02
2024-05-09T15:47:19.962Z,100503.51
2024-05-09T15:52:25.268Z,100500.42
2024-05-09T15:57:30.910Z,100497.76
2024-05-09T16:02:36.531Z,100497.54
2024-05-09T16:07:42.778Z,100498.64
2024-05-09T16:12:48.807Z,100499.34
2024-05-09T16:17:55.625Z,100497.32
2024-05-09T16:23:01.824Z,100496.61
2024-05-09T16:28:10.505Z,100491.27
2024-05-09T16:33:18.973Z,100495.73
2024-05-09T16:38:25.468Z,100493.75
2024-05-09T16:43:30.903Z,100489.84
2024-05-09T16:48:38.639Z,100492.53
2024-05-09T16:53:44.064Z,100492.66
2024-05-09T16:58:49.478Z,100487.35
2024-05-09T17:03:55.289Z,100488.13
2024-05-09T17:09:08.392Z,100485.39
2024-05-09T17:14:17.183Z,100481.80
2024-05-09T17:19:22.682Z,100483.17
2024-05-09T17:24:28.392Z,100482.77
2024-05-09T17:29:33.843Z,100483.73
2024-05-09T17:34:39.352Z,100478.42
2024-05-09T17:39:45.104Z,100474.78
2024-05-09T17:44:50.576Z,100475.45
2024-05-09T17:49:55.927Z,100471.29
2024-05-09T17:55:01.560Z,100476.12
2024-05-09T18:00:11.725Z,100476.38
2024-05-09T18:05:19.803Z,100475.73
2024-05-09T18:10:32.838Z,100470.63
2024-05-09T18:15:44.571Z,100470.19
2024-05-09T18:20:50.114Z,100469.63
2024-05-09T18:25:56.691Z,100467.08
2024-05-09T18:31:02.050Z,100467.45
2024-05-09T18:36:10.024Z,100469.39
2024-05-09T18:41:15.618Z,100468.45
2024-05-09T18:46:20.336Z,100468.08
2024-05-09T18:51:25.813Z,100471.60
2024-05-09T18:56:31.126Z,100477.41
2024-05-09T19:01:40.734Z,100478.33
2024-05-09T19:06:46.351Z,100489.48
2024-05-09T19:11:51.696Z,100484.15
2024-05-09T19:16:57.302Z,100488.48
2024-05-09T19:22:06.184Z,100480.04
2024-05-09T19:27:12.782Z,100479.55
2024-05-09T19:32:18.241Z,100479.17
2024-05-09T19:37:22.908Z,100478.40
2024-05-09T19:42:29.578Z,100481.86
2024-05-09T19:47:35.634Z,100476.45
2024-05-09T19:52:40.853Z,100478.06
2024-05-09T19:57:46.318Z,100479.61
2024-05-09T20:02:51.739Z,100472.16
2024-05-09T20:07:58.080Z,100481.20
2024-05-09T20:13:04.101Z,100479.43
2024-05-09T20:18:10.127Z,100476.95
2024-05-09T20:23:15.590Z,100465.59
2024-05-09T20:28:21.468Z,100462.24
2024-05-09T20:33:27.156Z,100460.38
2024-05-09T20:38:33.128Z,100459.98
2024-05-09T20:43:38.459Z,100465.67
2024-05-09T20:48:44.082Z,100463.27
2024-05-09T20:53:50.045Z,100465.45
2024-05-09T20:58:55.323Z,100470.30
2024-05-09T21:04:01.218Z,100470.00
2024-05-09T21:09:06.015Z,100468.05
2024-05-09T21:14:11.306Z,100463.13
2024-05-09T21:19:17.034Z,100466.36
2024-05-09T21:24:22.693Z,100461.02
2024-05-09T21:29:28.583Z,100469.55
2024-05-09T21:34:34.259Z,100467.81
2024-05-09T21:39:40.282Z,100467.99
2024-05-09T21:44:45.958Z,100466.17
2024-05-09T21:49:51.516Z,100464.98
2024-05-09T21:54:57.353Z,100469.74
2024-05-09T22:00:05.666Z,100464.79
2024-05-09T22:05:14.812Z,100459.98
2024-05-09T22:10:26.246Z,100460.12
2024-05-09T22:15:39.606Z,100449.44
2024-05-09T22:20:46.728Z,100451.08
2024-05-09T22:25:51.773Z,100455.83
2024-05-09T22:30:58.486Z,100456.36
2024-05-09T22:36:04.301Z,100450.02
2024-05-09T22:41:10.307Z,100448.98
2024-05-09T22:46:15.981Z,100446.13
2024-05-09T22:51:21.817Z,100434.93
2024-05-09T22:56:29.903Z,100435.73
2024-05-09T23:01:35.514Z,100429.58
2024-05-09T23:06:43.393Z,100426.02
2024-05-09T23:11:49.191Z,100421.17
2024-05-09T23:16:54.815Z,100416.30
2024-05-09T23:22:00.561Z,100403.27
2024-05-09T23:27:06.544Z,100401.64
2024-05-09T23:32:13.058Z,100401.52
2024-05-09T23:37:18.839Z,100399.70
2024-05-09T23:42:24.737Z,100399.77
2024-05-09T23:47:30.423Z,100396.35
2024-05-09T23:52:36.137Z,100389.60
2024-05-09T23:57:41.636Z,100386.21
